Time;durP1;ratioP1;P1;durP2;ratioP2;P2;SDS_P1;SDS_P2;PMS_P1;PMS_P2;Temp;Humidity;BMP_temperature;BMP_pressure;BME280_temperature;BME280_humidity;BME280_pressure;Samples;Min_cycle;Max_cycle;Signal;HPM_P1;HPM_P2
2022/10/06 00:54:59;;;;;;;17.05;11.63;;;;;;;8.73;80.80;100932.74;3410323;79;20925;-87
2022/10/06 00:59:51;;;;;;;11.95;10.30;;;;;;;8.68;81.12;100930.44;3351413;81;22134;-87
2022/10/06 01:04:54;;;;;;;9.83;8.68;;;;;;;8.62;80.89;100935.46;3414129;82;21080;-87
2022/10/06 01:09:48;;;;;;;13.00;9.78;;;;;;;8.56;80.76;100932.67;3562565;78;21078;-87
2022/10/06 01:14:40;;;;;;;9.93;8.93;;;;;;;8.53;80.68;100936.47;3447439;80;20986;-87
2022/10/06 01:19:56;;;;;;;9.83;8.60;;;;;;;8.50;80.77;100935.11;3492123;79;21988;-86
2022/10/06 01:24:51;;;;;;;11.75;8.98;;;;;;;8.44;80.56;100928.43;3466210;79;20972;-89
2022/10/06 01:29:41;;;;;;;13.50;9.38;;;;;;;8.36;80.72;100922.58;3471440;79;21824;-88
2022/10/06 01:34:33;;;;;;;10.65;9.08;;;;;;;8.31;81.01;100915.08;3461762;81;20962;-89
2022/10/06 01:39:25;;;;;;;10.48;8.55;;;;;;;8.31;81.16;100920.27;3520499;79;21446;-89
2022/10/06 01:44:17;;;;;;;9.40;8.35;;;;;;;8.23;80.75;100914.00;3451444;79;21031;-89
2022/10/06 01:49:08;;;;;;;9.55;8.55;;;;;;;8.16;80.72;100912.93;3488068;79;20941;-90
2022/10/06 01:54:00;;;;;;;11.08;8.15;;;;;;;8.12;80.98;100905.91;3494142;80;22183;-89
2022/10/06 01:58:51;;;;;;;10.55;7.80;;;;;;;8.00;81.06;100901.23;3468897;81;21470;-89
2022/10/06 02:03:42;;;;;;;10.50;7.42;;;;;;;8.00;80.88;100915.47;3492107;80;21048;-89
2022/10/06 02:08:33;;;;;;;10.53;8.05;;;;;;;8.00;80.88;100915.47;3428560;79;22180;-89
2022/10/06 02:13:27;;;;;;;10.30;7.37;;;;;;;7.98;80.97;100911.95;3444638;80;21453;-89
2022/10/06 02:18:18;;;;;;;8.10;7.30;;;;;;;7.95;80.97;100917.03;3440327;79;22184;-89
2022/10/06 02:23:09;;;;;;;8.53;7.53;;;;;;;7.94;81.25;100911.80;3424747;81;21003;-89
2022/10/06 02:28:00;;;;;;;10.32;8.33;;;;;;;7.91;80.97;100914.32;3541561;79;20903;-89
2022/10/06 02:32:52;;;;;;;10.13;7.42;;;;;;;7.86;81.11;100918.05;3455634;81;20990;-89
2022/10/06 02:37:44;;;;;;;8.73;6.65;;;;;;;7.86;81.11;100918.05;3500901;80;20971;-88
2022/10/06 02:42:38;;;;;;;8.93;7.20;;;;;;;7.83;81.12;100916.65;3432577;80;21497;-89
2022/10/06 02:47:31;;;;;;;9.60;7.17;;;;;;;7.80;81.10;100921.75;3481129;80;21378;-89
2022/10/06 02:52:23;;;;;;;7.35;6.37;;;;;;;7.78;81.34;100923.39;3440740;81;21563;-89
2022/10/06 02:57:15;;;;;;;10.45;7.12;;;;;;;7.75;81.30;100918.14;3442232;80;20985;-89
2022/10/06 03:02:06;;;;;;;11.00;7.25;;;;;;;7.73;81.30;100921.09;3461311;81;21576;-89
2022/10/06 03:06:59;;;;;;;9.98;7.37;;;;;;;7.61;81.44;100906.91;3484969;79;21507;-88
2022/10/06 03:11:52;;;;;;;7.65;6.47;;;;;;;7.64;81.33;100923.84;3508429;80;21511;-89
2022/10/06 03:16:50;;;;;;;8.28;6.33;;;;;;;7.64;81.41;100930.73;3497798;78;21545;-89
2022/10/06 03:21:43;;;;;;;8.90;5.75;;;;;;;7.62;81.48;100931.11;3537279;79;21009;-89
2022/10/06 03:26:39;;;;;;;10.32;6.37;;;;;;;7.60;81.49;100928.46;3425949;80;20896;-89
2022/10/06 03:31:32;;;;;;;13.70;7.87;;;;;;;7.58;81.76;100930.12;3402010;81;20951;-88
2022/10/06 03:36:28;;;;;;;8.00;5.95;;;;;;;7.57;81.76;100931.36;3376600;82;20971;-88
2022/10/06 03:41:24;;;;;;;6.55;5.65;;;;;;;7.55;81.62;100937.78;3454721;81;21057;-89
2022/10/06 03:46:20;;;;;;;12.28;5.80;;;;;;;7.54;81.48;100940.31;3419855;82;21303;-89
2022/10/06 03:51:21;;;;;;;8.35;6.22;;;;;;;7.52;81.64;100944.14;3412918;82;21531;-89
2022/10/06 03:56:27;;;;;;;6.92;5.80;;;;;;;7.50;81.99;100945.80;3475082;80;21600;-89
2022/10/06 04:01:23;;;;;;;8.25;6.00;;;;;;;7.45;81.86;100935.71;3444502;80;20977;-89
2022/10/06 04:06:18;;;;;;;7.65;5.80;;;;;;;7.45;81.99;100952.53;3427706;79;21512;-89
2022/10/06 04:11:17;;;;;;;5.47;4.65;;;;;;;7.44;82.18;100949.50;3431642;81;20975;-88
2022/10/06 04:16:12;;;;;;;7.25;5.60;;;;;;;7.42;82.08;100960.17;3470910;81;20991;-89
2022/10/06 04:21:04;;;;;;;8.25;6.03;;;;;;;7.41;82.31;100959.73;3439882;80;21193;-86
2022/10/06 04:26:01;;;;;;;9.33;5.53;;;;;;;7.41;82.38;100957.14;3454436;80;21523;-87
2022/10/06 04:31:00;;;;;;;;;;;;;;;7.40;82.53;100956.66;3412956;81;21113;-86
2022/10/06 04:36:02;;;;;;;10.32;5.70;;;;;;;7.35;82.16;100956.53;3440543;81;20162;-86
2022/10/06 04:40:53;;;;;;;6.53;5.83;;;;;;;7.34;82.45;100966.81;3432630;82;20945;-87
2022/10/06 04:45:45;;;;;;;8.23;5.50;;;;;;;7.30;82.48;100963.64;3430096;81;22149;-86
2022/10/06 04:50:36;;;;;;;12.75;6.20;;;;;;;7.30;82.51;100968.42;3442941;82;20940;-85
2022/10/06 04:55:29;;;;;;;5.87;5.25;;;;;;;7.34;82.82;100978.45;3454416;80;21311;-85
2022/10/06 05:00:24;;;;;;;8.30;5.25;;;;;;;7.34;82.77;100984.92;3402203;82;21485;-85
2022/10/06 05:05:16;;;;;;;6.05;4.87;;;;;;;7.34;82.55;100993.98;3413244;82;21012;-86
2022/10/06 05:10:08;;;;;;;8.73;5.53;;;;;;;7.34;82.83;100999.16;3422197;82;21221;-85
2022/10/06 05:14:59;;;;;;;9.00;5.37;;;;;;;7.37;82.79;101001.85;3434681;82;20936;-85
2022/10/06 05:19:51;;;;;;;8.08;5.22;;;;;;;7.39;82.95;101010.54;3415345;82;20936;-86
2022/10/06 05:24:42;;;;;;;6.22;5.00;;;;;;;7.44;83.20;101014.17;3424895;81;21027;-85
2022/10/06 05:29:34;;;;;;;11.33;5.65;;;;;;;7.47;83.20;101009.08;3439046;82;21171;-86
2022/10/06 05:34:26;;;;;;;8.23;5.15;;;;;;;7.51;83.13;101018.73;3422832;82;21109;-85
2022/10/06 05:39:17;;;;;;;6.22;4.90;;;;;;;7.55;83.21;101019.29;3466223;82;20959;-86
2022/10/06 05:44:11;;;;;;;6.72;5.47;;;;;;;7.59;83.19;101025.02;3446858;82;20951;-86
2022/10/06 05:49:08;;;;;;;16.85;6.35;;;;;;;7.60;83.27;101028.09;3392216;81;21027;-86
2022/10/06 05:54:01;;;;;;;17.55;5.80;;;;;;;7.65;83.50;101030.81;3418540;82;21447;-86
2022/10/06 05:58:55;;;;;;;11.75;5.95;;;;;;;7.72;83.74;101033.20;3439602;82;22156;-86
2022/10/06 06:04:01;;;;;;;10.23;5.58;;;;;;;7.82;83.92;101043.05;3426279;80;20978;-86
2022/10/06 06:08:59;;;;;;;12.07;5.97;;;;;;;7.90;84.16;101051.06;3407421;81;21347;-86
2022/10/06 06:13:53;;;;;;;8.23;6.00;;;;;;;8.01;84.33;101060.95;3450852;81;21438;-86
2022/10/06 06:18:45;;;;;;;9.58;5.78;;;;;;;8.11;84.70;101074.20;3430348;80;20915;-86
2022/10/06 06:23:45;;;;;;;8.98;6.10;;;;;;;8.26;85.07;101086.33;3427318;80;21450;-86
2022/10/06 06:28:39;;;;;;;7.35;5.33;;;;;;;8.42;85.06;101093.31;3444754;80;21000;-85
2022/10/06 06:33:30;;;;;;;11.78;6.60;;;;;;;8.76;85.26;101094.87;3407534;80;20994;-86
2022/10/06 06:38:21;;;;;;;7.87;6.35;;;;;;;9.12;86.08;101101.98;3473367;80;20999;-84
2022/10/06 06:43:13;;;;;;;8.28;6.67;;;;;;;9.39;85.74;101097.52;3391491;81;21073;-86
2022/10/06 06:48:14;;;;;;;7.70;6.25;;;;;;;9.64;86.29;101121.13;3460438;81;20982;-86
2022/10/06 06:53:06;;;;;;;7.58;6.35;;;;;;;9.93;86.61;101129.29;3451352;82;21391;-86
2022/10/06 06:57:59;;;;;;;6.47;5.87;;;;;;;10.55;86.41;101129.56;3470343;79;21027;-86
2022/10/06 07:02:54;;;;;;;6.55;5.58;;;;;;;10.91;86.16;101131.65;3500943;80;21142;-86
2022/10/06 07:07:43;;;;;;;8.60;6.03;;;;;;;11.33;86.22;101136.03;3499201;79;21042;-86
2022/10/06 07:12:35;;;;;;;6.58;5.70;;;;;;;11.52;86.38;101142.47;3437979;80;22007;-86
2022/10/06 07:27:53;;;;;;;7.33;6.62;;;;;;;12.17;86.34;101153.28;3416665;81;20962;-90
2022/10/06 07:32:45;;;;;;;7.85;5.70;;;;;;;12.43;86.08;101158.08;3522827;79;20960;-90
2022/10/06 07:37:37;;;;;;;5.70;4.87;;;;;;;12.73;86.07;101167.22;3519174;79;21181;-94
2022/10/06 07:42:29;;;;;;;8.23;4.75;;;;;;;12.92;85.55;101169.25;3421582;80;21011;-93
2022/10/06 07:47:20;;;;;;;7.40;5.55;;;;;;;13.13;85.22;101176.95;3484156;79;21018;-94
2022/10/06 07:52:16;;;;;;;6.50;5.08;;;;;;;13.31;84.88;101177.22;3508947;79;21041;-94
2022/10/06 07:57:08;;;;;;;6.15;5.08;;;;;;;13.50;84.47;101186.59;3442714;79;20982;-95
2022/10/06 08:01:59;;;;;;;5.85;5.25;;;;;;;13.60;84.16;101178.02;3438420;80;22341;-96
2022/10/06 08:06:51;;;;;;;7.17;4.83;;;;;;;13.59;83.93;101180.60;3369790;81;21437;-96
2022/10/06 08:11:43;;;;;;;5.97;5.22;;;;;;;13.69;83.85;101178.11;3396284;80;20931;-92
2022/10/06 08:16:35;;;;;;;6.87;5.22;;;;;;;13.70;83.67;101190.34;3444783;80;20951;-95
2022/10/06 08:21:30;;;;;;;6.70;4.78;;;;;;;13.73;83.55;101186.87;3396080;80;20944;-94
2022/10/06 08:26:24;;;;;;;7.47;4.22;;;;;;;13.89;83.47;101190.53;3412233;80;21148;-96
2022/10/06 08:31:20;;;;;;;4.85;4.33;;;;;;;14.05;83.11;101206.83;3469355;80;21597;-92
2022/10/06 08:36:15;;;;;;;6.22;4.83;;;;;;;14.22;82.95;101212.68;3431557;80;21436;-93
2022/10/06 08:41:39;;;;;;;4.67;4.03;;;;;;;14.52;82.69;101212.50;3426217;80;21013;-96
2022/10/06 08:46:41;;;;;;;6.87;4.15;;;;;;;14.91;81.59;101201.94;3428542;80;20992;-96
2022/10/06 08:51:47;;;;;;;5.20;4.65;;;;;;;15.41;80.96;101214.45;3457531;80;21156;-95
2022/10/06 08:57:11;;;;;;;9.53;4.35;;;;;;;15.51;80.32;101208.39;3433372;81;20955;-95
2022/10/06 09:02:05;;;;;;;4.80;4.20;;;;;;;15.52;80.23;101206.20;3461954;80;20966;-88
2022/10/06 09:07:07;;;;;;;7.05;4.00;;;;;;;15.51;80.52;101207.08;3355921;82;21674;-94
2022/10/06 09:12:13;;;;;;;5.75;3.92;;;;;;;15.87;79.66;101213.36;3414788;81;21018;-89
2022/10/06 09:17:09;;;;;;;5.08;3.62;;;;;;;16.41;78.90;101213.91;3441797;81;21495;-94
2022/10/06 09:22:04;;;;;;;6.20;4.28;;;;;;;16.69;78.06;101226.61;3419053;81;27315;-90
2022/10/06 09:26:57;;;;;;;6.15;3.60;;;;;;;17.18;77.44;101229.64;3346520;81;20998;-90
2022/10/06 09:31:49;;;;;;;5.30;4.60;;;;;;;17.37;76.68;101241.86;3378784;81;20994;-91
2022/10/06 09:37:08;;;;;;;6.35;3.58;;;;;;;17.44;76.25;101259.37;3401273;81;21462;-93
2022/10/06 09:42:07;;;;;;;5.72;4.00;;;;;;;17.45;75.68;101261.55;3434002;81;21158;-96
2022/10/06 09:46:59;;;;;;;7.72;4.17;;;;;;;17.60;75.64;101269.81;3430494;81;21065;-95
2022/10/06 09:52:14;;;;;;;5.75;4.45;;;;;;;17.95;75.00;101280.23;3371425;81;20959;-91
2022/10/06 09:57:16;;;;;;;7.17;3.98;;;;;;;18.07;74.18;101267.48;3383486;81;20959;-95
2022/10/06 10:02:35;;;;;;;4.60;3.67;;;;;;;18.32;73.52;101269.98;3462519;80;20982;-92
2022/10/06 10:07:29;;;;;;;5.67;3.70;;;;;;;18.62;73.75;101268.89;3394382;81;21118;-93
2022/10/06 10:12:26;;;;;;;6.95;3.85;;;;;;;18.84;73.00;101289.38;3397808;81;20960;-93
2022/10/06 10:17:44;;;;;;;5.30;3.92;;;;;;;18.80;72.59;101291.58;3423663;81;20991;-91
2022/10/06 10:22:39;;;;;;;4.22;3.83;;;;;;;18.92;72.05;101302.02;3436278;81;21008;-87
2022/10/06 10:28:02;;;;;;;6.12;3.77;;;;;;;18.80;71.80;101306.06;3423007;81;20980;-92
2022/10/06 10:33:07;;;;;;;6.97;4.28;;;;;;;18.91;71.76;101304.25;3425522;81;21039;-94
2022/10/06 10:38:21;;;;;;;6.37;3.72;;;;;;;19.42;71.37;101307.30;3437717;81;21030;-88
2022/10/06 10:43:36;;;;;;;6.33;3.77;;;;;;;19.60;70.81;101310.60;3441941;81;20995;-90
2022/10/06 10:48:50;;;;;;;7.15;3.65;;;;;;;19.59;70.04;101311.52;3445672;81;20973;-92
2022/10/06 10:54:08;;;;;;;6.15;3.75;;;;;;;19.42;70.71;101307.30;3388672;81;21473;-90
2022/10/06 10:59:22;;;;;;;4.25;3.15;;;;;;;19.53;70.05;101311.56;3441782;81;22141;-96
2022/10/06 11:04:14;;;;;;;4.30;3.37;;;;;;;19.24;69.88;101320.22;3388927;82;21009;-95
2022/10/06 11:09:22;;;;;;;9.00;3.75;;;;;;;18.72;69.68;101320.59;3332938;81;20990;-89
2022/10/06 11:14:36;;;;;;;7.47;5.22;;;;;;;18.37;70.97;101319.08;3395517;81;20964;-92
2022/10/06 11:19:48;;;;;;;4.72;3.80;;;;;;;17.98;71.42;101338.56;3375946;81;21518;-87
2022/10/06 11:25:12;;;;;;;6.05;3.87;;;;;;;17.65;71.98;101340.36;3403393;82;21481;-92
2022/10/06 11:30:18;;;;;;;6.22;3.83;;;;;;;17.52;72.45;101347.41;3405839;81;21492;-90
2022/10/06 11:35:23;;;;;;;5.22;4.00;;;;;;;17.35;72.72;101346.13;3400435;81;21528;-95
2022/10/06 11:40:48;;;;;;;6.47;3.95;;;;;;;17.27;73.15;101338.67;3385438;82;21054;-96
2022/10/06 11:45:51;;;;;;;5.37;4.28;;;;;;;17.42;73.16;101343.93;3412563;81;21014;-95
2022/10/06 11:50:43;;;;;;;4.40;3.85;;;;;;;17.72;73.08;101336.42;3409482;81;21471;-91
2022/10/06 11:55:35;;;;;;;5.20;4.53;;;;;;;18.04;72.45;101337.21;3402679;81;20984;-93
2022/10/06 12:00:37;;;;;;;5.62;4.25;;;;;;;18.40;72.22;101349.34;3425201;81;21469;-94
2022/10/06 12:05:32;;;;;;;4.53;3.67;;;;;;;18.54;71.94;101354.95;3399618;82;20972;-92
2022/10/06 12:10:33;;;;;;;4.83;4.20;;;;;;;18.53;71.95;101351.45;3387836;82;21000;-96
2022/10/06 12:15:38;;;;;;;5.45;3.50;;;;;;;18.67;71.91;101355.30;3411166;82;21355;-90
2022/10/06 12:20:56;;;;;;;3.83;3.05;;;;;;;18.70;70.39;101365.83;3392232;82;20987;-95
2022/10/06 12:25:54;;;;;;;;;;;;;;;18.66;70.17;101370.23;3402102;81;21082;-94
2022/10/06 12:31:13;;;;;;;;;;;;;;;19.01;70.02;101350.72;3392464;81;20260;-90
2022/10/06 12:36:19;;;;;;;3.62;2.42;;;;;;;19.81;69.12;101357.02;3340881;83;20662;-96
2022/10/06 12:41:13;;;;;;;3.55;2.55;;;;;;;20.09;68.51;101368.13;3332635;83;21157;-85
2022/10/06 12:46:20;;;;;;;3.70;2.50;;;;;;;20.51;67.21;101369.80;3332473;83;21022;-85
2022/10/06 12:51:17;;;;;;;;;;;;;;;20.51;67.03;101386.97;3326925;83;20964;-85
2022/10/06 12:56:14;;;;;;;3.40;2.02;;;;;;;20.28;65.22;101388.59;3354499;83;20334;-88
2022/10/06 13:01:09;;;;;;;;;;;;;;;19.80;64.97;101393.09;3359736;82;20985;-96
2022/10/06 13:06:04;;;;;;;2.22;2.02;;;;;;;19.42;64.91;101401.33;3411880;82;21027;-95
2022/10/06 13:11:27;;;;;;;2.98;2.65;;;;;;;19.12;65.10;101411.67;3330746;81;20995;-96
2022/10/06 13:16:25;;;;;;;3.45;2.50;;;;;;;18.91;65.99;101407.00;3388221;80;21043;-90
2022/10/06 13:21:17;;;;;;;3.10;2.80;;;;;;;18.50;66.17;101419.93;3443520;80;20900;-89
2022/10/06 13:26:29;;;;;;;4.08;2.70;;;;;;;18.22;66.50;101430.55;3410352;80;21183;-95
2022/10/06 13:31:34;;;;;;;4.00;2.70;;;;;;;18.05;66.69;101428.44;3443391;80;21139;-92
2022/10/06 13:36:28;;;;;;;3.45;2.75;;;;;;;17.89;67.45;101436.34;3422078;80;21217;-96
2022/10/06 13:41:44;;;;;;;5.67;3.00;;;;;;;17.81;67.66;101437.20;3457119;80;21468;-92
2022/10/06 13:46:39;;;;;;;4.62;2.77;;;;;;;17.81;67.79;101448.59;3404581;80;21601;-90
2022/10/06 13:51:32;;;;;;;4.08;3.15;;;;;;;17.87;67.90;101447.77;3470446;80;20993;-93
2022/10/06 13:56:28;;;;;;;4.20;2.90;;;;;;;17.76;67.84;101456.95;3403128;80;21062;-93
2022/10/06 14:01:30;;;;;;;3.08;2.45;;;;;;;17.66;68.15;101459.14;3456284;80;20920;-96
2022/10/06 14:06:23;;;;;;;3.05;2.30;;;;;;;17.52;67.56;101465.27;3445106;80;20911;-94
2022/10/06 14:11:23;;;;;;;3.02;2.17;;;;;;;17.79;67.74;101462.19;3449130;80;20970;-95
2022/10/06 14:16:21;;;;;;;4.10;2.22;;;;;;;17.75;66.95;101472.28;3471007;80;21014;-89
2022/10/06 14:21:43;;;;;;;6.15;2.00;;;;;;;17.53;66.55;101475.37;3432321;80;21284;-92
2022/10/06 14:26:35;;;;;;;5.90;1.92;;;;;;;17.73;66.67;101476.67;3328395;83;21028;-92
2022/10/06 14:31:30;;;;;;;3.55;2.20;;;;;;;18.24;65.75;101485.83;3465164;81;21474;-96
2022/10/06 14:36:26;;;;;;;2.15;1.80;;;;;;;18.34;64.44;101494.59;3454123;80;20974;-95
2022/10/06 14:41:18;;;;;;;3.15;1.72;;;;;;;18.09;63.03;101498.14;3482812;80;21001;-91
2022/10/06 14:46:10;;;;;;;4.95;1.80;;;;;;;17.84;62.91;101498.57;3385068;80;21489;-87
2022/10/06 14:51:02;;;;;;;2.12;1.60;;;;;;;17.81;63.02;101513.48;3465159;80;20983;-87
2022/10/06 14:56:07;;;;;;;4.62;2.00;;;;;;;17.79;62.39;101524.00;3477467;79;20947;-87
2022/10/06 15:01:06;;;;;;;4.35;1.82;;;;;;;17.70;62.13;101521.37;3460135;80;21564;-87
2022/10/06 15:11:15;;;;;;;2.95;1.70;;;;;;;17.45;61.40;101541.06;3433506;80;21635;-87
2022/10/06 15:16:07;;;;;;;3.08;1.62;;;;;;;17.31;61.82;101546.73;3400879;81;20979;-87
2022/10/06 15:21:03;;;;;;;2.27;1.65;;;;;;;17.12;61.97;101554.58;3376430;81;21503;-87
2022/10/06 15:31:06;;;;;;;2.08;1.67;;;;;;;16.75;62.29;101552.20;3398559;81;21007;-88
2022/10/06 15:36:17;;;;;;;2.85;1.77;;;;;;;16.56;62.52;101555.15;3394058;81;21445;-87
2022/10/06 15:41:09;;;;;;;3.47;1.60;;;;;;;16.36;62.69;101551.10;3473062;81;21077;-87
2022/10/06 15:46:00;;;;;;;1.90;1.70;;;;;;;16.18;62.82;101568.47;3446036;80;20915;-87
2022/10/06 15:50:51;;;;;;;3.83;1.80;;;;;;;16.01;63.14;101583.22;3454210;81;20979;-87
2022/10/06 15:55:42;;;;;;;1.80;1.70;;;;;;;15.81;63.31;101600.09;3492512;80;21049;-87
2022/10/06 16:00:33;;;;;;;4.17;2.05;;;;;;;15.65;63.31;101613.45;3496815;80;21053;-87
2022/10/06 16:05:46;;;;;;;5.03;2.37;;;;;;;15.51;63.33;101618.53;3445822;80;20934;-87
2022/10/06 16:10:23;;;;;;;2.87;1.90;;;;;;;15.40;63.49;101633.27;3488579;80;20987;-87
2022/10/06 16:15:16;;;;;;;5.67;1.55;;;;;;;15.30;63.58;101644.49;3483329;80;21006;-87
2022/10/06 16:20:10;;;;;;;1.95;1.75;;;;;;;15.12;63.80;101649.94;3479189;80;21054;-87
2022/10/06 16:25:01;;;;;;;4.65;2.12;;;;;;;14.90;64.32;101649.19;3480524;80;22038;-87
2022/10/06 16:29:52;;;;;;;4.12;1.80;;;;;;;14.68;64.56;101659.34;3514392;80;20954;-87
2022/10/06 16:34:49;;;;;;;3.40;2.23;;;;;;;14.45;64.78;101671.63;3378141;80;21022;-87
2022/10/06 16:39:37;;;;;;;5.05;2.27;;;;;;;14.22;65.14;101686.06;3368020;81;21479;-87
2022/10/06 16:44:28;;;;;;;3.92;3.40;;;;;;;14.13;65.37;101693.72;3405544;81;21458;-87
2022/10/06 16:49:19;;;;;;;4.97;2.83;;;;;;;14.09;65.44;101706.77;3421394;81;21076;-87
2022/10/06 16:54:14;;;;;;;4.67;2.90;;;;;;;14.07;65.45;101714.11;3407674;82;21034;-87
2022/10/06 16:59:13;;;;;;;4.37;2.55;;;;;;;14.03;65.43;101718.84;3384244;81;20920;-87
2022/10/06 17:04:11;;;;;;;10.48;3.30;;;;;;;13.96;65.67;101720.45;3435763;81;20964;-86
2022/10/06 17:09:02;;;;;;;10.00;2.83;;;;;;;13.82;66.60;101734.98;3398933;82;20917;-87
2022/10/06 17:13:56;;;;;;;10.53;2.75;;;;;;;13.65;67.12;101732.92;3400462;80;21011;-86
2022/10/06 17:18:51;;;;;;;3.67;2.83;;;;;;;13.43;67.37;101743.75;3399645;81;20995;-86
2022/10/06 17:23:45;;;;;;;4.92;2.60;;;;;;;13.19;67.82;101752.78;3333022;81;36928;-87
2022/10/06 17:28:37;;;;;;;7.58;4.08;;;;;;;12.94;67.79;101760.04;3431417;81;20972;-87
2022/10/06 17:33:33;;;;;;;4.58;2.60;;;;;;;12.74;68.17;101759.99;3398930;80;20987;-86
2022/10/06 17:38:25;;;;;;;4.90;2.55;;;;;;;12.53;68.43;101770.33;3359957;81;21134;-86
2022/10/06 17:43:16;;;;;;;4.37;3.52;;;;;;;12.33;68.65;101772.86;3388857;81;20987;-86
2022/10/06 17:48:07;;;;;;;5.10;2.77;;;;;;;12.13;68.90;101777.11;3379345;80;21035;-86
2022/10/06 17:52:59;;;;;;;5.12;3.17;;;;;;;11.96;69.18;101779.23;3387393;81;20989;-87
2022/10/06 17:57:50;;;;;;;4.05;2.65;;;;;;;11.79;69.58;101787.84;3441054;81;21031;-86
2022/10/06 18:02:41;;;;;;;4.10;2.58;;;;;;;11.66;69.83;101793.55;3380508;80;21185;-86
2022/10/06 18:07:33;;;;;;;5.37;3.05;;;;;;;11.49;69.60;101793.45;3344269;81;20983;-86
2022/10/06 18:12:25;;;;;;;5.83;2.70;;;;;;;11.36;70.01;101794.38;3364444;83;20933;-86
2022/10/06 18:17:17;;;;;;;6.85;3.35;;;;;;;11.24;70.49;101798.77;3394438;81;21269;-86
2022/10/06 18:22:09;;;;;;;8.13;3.58;;;;;;;11.16;70.78;101804.56;3385249;81;21582;-86
2022/10/06 18:27:00;;;;;;;7.83;4.45;;;;;;;11.04;70.67;101813.76;3373878;82;22549;-86
2022/10/06 18:31:53;;;;;;;6.20;4.10;;;;;;;10.93;70.82;101815.14;3275857;82;20988;-86
2022/10/06 18:36:44;;;;;;;7.92;3.72;;;;;;;10.79;71.05;101817.70;3369424;80;20983;-86
2022/10/06 18:41:36;;;;;;;5.30;3.58;;;;;;;10.68;71.26;101824.71;3366907;82;21040;-86
2022/10/06 18:51:48;;;;;;;6.28;3.70;;;;;;;10.49;71.80;101834.88;3427310;80;22049;-86
2022/10/06 18:56:40;;;;;;;9.25;4.47;;;;;;;10.42;72.03;101838.52;3403209;80;21561;-86
2022/10/06 19:01:31;;;;;;;5.45;3.60;;;;;;;10.29;71.83;101844.54;3417043;80;20991;-93
2022/10/06 19:06:27;;;;;;;4.75;4.22;;;;;;;10.20;71.98;101852.01;3392945;80;21599;-84
2022/10/06 19:16:28;;;;;;;3.75;3.42;;;;;;;10.05;72.36;101868.32;3422729;80;21717;-88
2022/10/06 19:21:19;;;;;;;8.23;4.58;;;;;;;9.92;72.58;101873.05;3417548;81;21517;-87
2022/10/06 19:26:11;;;;;;;4.62;4.10;;;;;;;9.83;72.83;101876.60;3398950;81;20978;-86
2022/10/06 19:31:13;;;;;;;10.23;3.90;;;;;;;9.76;72.56;101881.09;3406005;81;21010;-87
2022/10/06 19:36:07;;;;;;;5.65;3.70;;;;;;;9.64;72.45;101887.09;3382780;81;20998;-86
2022/10/06 19:42:45;;;;;;;8.38;4.35;;;;;;;9.56;73.09;101895.89;3427400;81;20998;-86
2022/10/06 19:45:57;;;;;;;7.17;4.83;;;;;;;9.50;73.17;101900.85;3408423;81;20998;-86
2022/10/06 19:50:51;;;;;;;8.95;4.55;;;;;;;9.41;73.11;101902.66;3381575;80;22152;-87
2022/10/06 19:55:42;;;;;;;5.37;4.47;;;;;;;9.27;72.95;101907.28;3378611;81;20994;-87
2022/10/06 20:00:34;;;;;;;8.50;4.67;;;;;;;9.16;72.95;101901.64;3392684;81;21573;-86
2022/10/06 20:05:26;;;;;;;10.68;5.25;;;;;;;9.09;73.26;101913.88;3411362;81;22550;-85
2022/10/06 20:10:17;;;;;;;6.80;5.67;;;;;;;9.01;73.11;101920.44;3412614;81;21494;-86
2022/10/06 20:15:09;;;;;;;12.68;7.33;;;;;;;8.95;73.71;101924.09;3405873;81;20974;-87
2022/10/06 20:20:03;;;;;;;10.75;6.83;;;;;;;8.87;73.41;101921.56;3363179;81;20987;-86
2022/10/06 20:24:54;;;;;;;10.03;6.80;;;;;;;8.80;73.56;101919.14;3407360;81;21104;-86
2022/10/06 20:29:45;;;;;;;11.03;7.30;;;;;;;8.74;73.31;101929.22;3383250;81;20995;-86
2022/10/06 20:34:37;;;;;;;9.98;8.05;;;;;;;8.65;73.50;101937.90;3371932;81;21011;-86
2022/10/06 20:44:40;;;;;;;17.75;9.93;;;;;;;8.46;73.52;101949.14;3392087;81;21316;-86
2022/10/06 20:49:31;;;;;;;14.83;10.85;;;;;;;8.38;73.64;101954.83;3339794;81;20979;-85
2022/10/06 20:54:27;;;;;;;14.35;11.35;;;;;;;8.32;73.86;101941.60;3381188;81;21616;-85
2022/10/06 20:59:20;;;;;;;14.95;11.03;;;;;;;8.28;74.15;101942.29;3381247;81;21221;-85
2022/10/06 21:04:13;;;;;;;12.23;9.10;;;;;;;8.22;73.99;101954.95;3393452;81;20995;-85
2022/10/06 21:09:09;;;;;;;13.20;10.08;;;;;;;8.09;73.76;101951.31;3404731;81;20939;-85
2022/10/06 21:14:01;;;;;;;13.10;9.85;;;;;;;8.09;73.76;101951.31;3416092;81;20947;-85
2022/10/06 21:18:52;;;;;;;14.98;9.90;;;;;;;7.91;73.91;101958.69;3415557;80;21172;-85
2022/10/06 21:23:49;;;;;;;19.32;11.33;;;;;;;7.91;73.91;101958.69;3402094;81;21132;-84
2022/10/06 21:28:41;;;;;;;15.83;10.47;;;;;;;7.86;74.27;101960.17;3397837;80;21548;-85
2022/10/06 21:33:40;;;;;;;14.83;10.78;;;;;;;7.78;73.93;101962.40;3331721;81;21003;-84
2022/10/06 21:38:28;;;;;;;13.88;10.28;;;;;;;7.73;74.49;101963.88;3408204;80;21500;-85
2022/10/06 21:43:20;;;;;;;16.73;11.70;;;;;;;7.61;74.38;101962.86;3321438;82;21481;-85
2022/10/06 21:48:11;;;;;;;15.85;11.70;;;;;;;7.50;74.73;101973.52;3438844;80;20922;-85
2022/10/06 21:53:02;;;;;;;15.83;11.88;;;;;;;7.50;74.73;101973.52;3444382;80;21071;-85
2022/10/06 21:57:53;;;;;;;15.48;11.33;;;;;;;7.40;74.23;101978.63;3456472;80;20939;-85
2022/10/06 22:02:44;;;;;;;14.47;12.95;;;;;;;7.33;74.54;101979.13;3421966;80;21069;-85
2022/10/06 22:07:36;;;;;;;12.55;10.48;;;;;;;7.25;74.69;101977.45;3375615;81;21037;-85
2022/10/06 22:12:27;;;;;;;15.15;11.73;;;;;;;7.22;74.75;101985.92;3398815;81;20994;-85
2022/10/06 22:17:18;;;;;;;18.75;11.90;;;;;;;7.10;74.59;101981.83;3378471;82;21084;-85
2022/10/06 22:22:09;;;;;;;15.95;10.68;;;;;;;7.05;74.97;101978.61;3276611;84;21068;-85
2022/10/06 22:27:00;;;;;;;16.42;12.80;;;;;;;6.99;74.73;101983.48;3372720;83;21062;-85
2022/10/06 22:31:51;;;;;;;15.90;12.60;;;;;;;6.95;75.03;101990.98;3310418;83;21063;-85
2022/10/06 22:36:42;;;;;;;16.48;11.73;;;;;;;6.87;75.01;101986.72;3354921;82;20991;-85
2022/10/06 22:41:34;;;;;;;16.25;13.18;;;;;;;6.87;75.23;101986.31;3388774;82;20971;-85
2022/10/06 22:46:28;;;;;;;18.55;12.80;;;;;;;6.84;75.34;101993.02;3405486;82;22098;-86
2022/10/06 22:51:19;;;;;;;18.82;12.68;;;;;;;6.82;75.21;101991.64;3336570;82;21026;-85
2022/10/06 22:56:11;;;;;;;18.60;13.35;;;;;;;6.79;75.51;101985.00;3333839;82;21045;-86
2022/10/06 23:01:11;;;;;;;23.15;15.43;;;;;;;6.75;75.30;101985.66;3360989;83;21018;-85
2022/10/06 23:06:02;;;;;;;19.40;14.95;;;;;;;6.68;75.45;101986.14;3356855;81;20906;-85
2022/10/06 23:10:53;;;;;;;18.65;14.60;;;;;;;6.62;75.28;101996.17;3440306;81;20982;-86
2022/10/06 23:15:45;;;;;;;19.60;14.85;;;;;;;6.56;75.62;102003.58;3492715;80;22450;-85
2022/10/06 23:20:37;;;;;;;22.13;16.15;;;;;;;6.47;75.12;102012.63;3460949;80;21293;-85
2022/10/06 23:25:28;;;;;;;20.80;14.85;;;;;;;6.44;75.69;102004.70;3456867;81;21001;-85
2022/10/06 23:30:19;;;;;;;21.12;15.35;;;;;;;6.39;75.74;102012.59;3436178;80;20998;-85
2022/10/06 23:35:11;;;;;;;22.40;17.92;;;;;;;6.29;75.37;102012.48;3447067;81;20968;-86
2022/10/06 23:40:04;;;;;;;20.17;15.15;;;;;;;6.23;75.64;102003.53;3466104;81;20974;-85
2022/10/06 23:44:55;;;;;;;20.68;14.95;;;;;;;6.17;75.85;102004.46;3458435;81;21729;-85
2022/10/06 23:49:46;;;;;;;21.15;16.48;;;;;;;6.14;75.63;102011.66;3488668;81;20970;-86
2022/10/06 23:54:38;;;;;;;21.15;15.93;;;;;;;6.08;75.96;102015.16;3446700;81;20990;-85
2022/10/06 23:59:29;;;;;;;24.67;17.65;;;;;;;6.03;75.61;102020.09;3421084;81;20943;-85
